Time;durP1;ratioP1;P1;durP2;ratioP2;P2;SDS_P1;SDS_P2;PMS_P1;PMS_P2;Temp;Humidity;BMP_temperature;BMP_pressure;BME280_temperature;BME280_humidity;BME280_pressure;Samples;Min_cycle;Max_cycle;Signal;HPM_P1;HPM_P2
2023/04/28 00:02:25;;;;;;;;;;;;;;;18.76;63.61;101172.53;7400512;19;1273;-58
2023/04/28 00:04:54;;;;;;;;;;;;;;;18.68;63.60;101174.03;7398608;19;1321;-58
2023/04/28 00:07:25;;;;;;;;;;;;;;;18.79;63.51;101188.38;7401130;19;1544;-59
2023/04/28 00:09:53;;;;;;;;;;;;;;;18.65;63.48;101171.59;7400887;19;1262;-58
2023/04/28 00:12:21;;;;;;;;;;;;;;;18.71;63.51;101180.13;7400585;19;1338;-58
2023/04/28 00:14:50;;;;;;;;;;;;;;;18.70;63.87;101198.00;7400787;19;1488;-58
2023/04/28 00:17:18;;;;;;;;;;;;;;;18.73;63.63;101199.59;7399739;19;1818;-58
2023/04/28 00:19:48;;;;;;;;;;;;;;;18.64;63.68;101196.69;7400911;19;1032;-58
2023/04/28 00:22:17;;;;;;;;;;;;;;;18.65;63.91;101209.09;7401637;19;1441;-59
2023/04/28 00:24:48;;;;;;;;;;;;;;;18.77;63.49;101207.25;7401344;19;1374;-58
2023/04/28 00:27:16;;;;;;;;;;;;;;;18.70;63.56;101232.81;7399898;19;1469;-59
2023/04/28 00:29:48;;;;;;;;;;;;;;;18.72;63.69;101213.94;7397303;19;1611;-58
2023/04/28 00:32:16;;;;;;;;;;;;;;;18.69;63.62;101215.91;7401433;19;1199;-59
2023/04/28 00:34:44;;;;;;;;;;;;;;;18.57;63.89;101229.44;7398910;19;1412;-59
2023/04/28 00:37:12;;;;;;;;;;;;;;;18.70;63.91;101219.41;7400281;19;1595;-59
2023/04/28 00:39:40;;;;;;;;;;;;;;;18.74;63.53;101222.72;7399082;19;1861;-59
2023/04/28 00:42:11;;;;;;;;;;;;;;;18.63;63.66;101220.91;7399619;19;1939;-59
2023/04/28 00:44:40;;;;;;;;;;;;;;;18.63;63.80;101216.38;7399841;19;1627;-58
2023/04/28 00:47:10;;;;;;;;;;;;;;;18.64;63.66;101207.41;7399544;19;1258;-58
2023/04/28 00:49:39;;;;;;;;;;;;;;;18.71;63.87;101213.09;7399288;19;1195;-59
2023/04/28 00:52:08;;;;;;;;;;;;;;;18.67;63.67;101217.84;7398219;19;1433;-59
2023/04/28 00:54:37;;;;;;;;;;;;;;;18.68;63.61;101214.22;7398510;19;1247;-58
2023/04/28 00:57:05;;;;;;;;;;;;;;;18.62;63.80;101209.34;7398054;19;1532;-58
2023/04/28 00:59:37;;;;;;;;;;;;;;;18.67;63.52;101222.38;7397219;19;1866;-58
2023/04/28 01:02:06;;;;;;;;;;;;;;;18.64;63.86;101217.25;7397430;19;1494;-59
2023/04/28 01:04:35;;;;;;;;;;;;;;;18.52;63.92;101229.78;7398626;19;1212;-58
2023/04/28 01:07:04;;;;;;;;;;;;;;;18.58;63.84;101225.75;7399140;19;1163;-59
2023/04/28 01:09:32;;;;;;;;;;;;;;;18.61;63.93;101218.34;7399244;19;1935;-58
2023/04/28 01:12:00;;;;;;;;;;;;;;;18.62;63.58;101225.41;7398327;19;1414;-58
2023/04/28 01:14:28;;;;;;;;;;;;;;;18.73;63.68;101216.50;7399250;19;1587;-59
2023/04/28 01:16:59;;;;;;;;;;;;;;;18.62;63.77;101224.53;7399753;19;1500;-59
2023/04/28 01:19:28;;;;;;;;;;;;;;;18.60;63.75;101238.09;7397737;19;1847;-59
2023/04/28 01:21:56;;;;;;;;;;;;;;;18.61;63.73;101230.88;7399516;19;1283;-56
2023/04/28 01:24:27;;;;;;;;;;;;;;;18.61;63.93;101231.72;7399383;19;1615;-58
2023/04/28 01:26:56;;;;;;;;;;;;;;;18.64;63.62;101226.16;7397062;19;1274;-59
2023/04/28 01:29:24;;;;;;;;;;;;;;;18.55;63.97;101221.50;7399925;19;1164;-59
2023/04/28 01:31:52;;;;;;;;;;;;;;;18.58;63.89;101229.31;7398806;19;1948;-58
2023/04/28 01:34:21;;;;;;;;;;;;;;;18.52;64.04;101219.06;7398932;19;1600;-58
2023/04/28 01:36:49;;;;;;;;;;;;;;;18.60;63.57;101227.38;7399944;19;1353;-58
2023/04/28 01:39:17;;;;;;;;;;;;;;;18.64;63.78;101220.78;7397198;19;1863;-59
2023/04/28 01:41:48;;;;;;;;;;;;;;;18.58;64.06;101237.34;7394950;19;1914;-59
2023/04/28 01:44:17;;;;;;;;;;;;;;;18.59;64.05;101222.13;7397996;19;1599;-58
2023/04/28 01:46:45;;;;;;;;;;;;;;;18.98;63.27;101226.16;7396756;19;1556;-59
2023/04/28 01:49:13;;;;;;;;;;;;;;;19.44;61.62;101227.75;7397257;19;1481;-58
2023/04/28 01:51:42;;;;;;;;;;;;;;;20.14;59.99;101230.00;7396296;19;1297;-58
2023/04/28 01:54:10;;;;;;;;;;;;;;;20.17;60.02;101214.47;7396265;19;1179;-58
2023/04/28 01:56:38;;;;;;;;;;;;;;;20.32;59.41;101214.13;7396307;19;1626;-58
2023/04/28 01:59:09;;;;;;;;;;;;;;;20.49;59.14;101229.63;7395725;19;1857;-58
2023/04/28 02:01:38;;;;;;;;;;;;;;;20.48;59.08;101221.72;7396681;19;1179;-58
2023/04/28 02:04:06;;;;;;;;;;;;;;;20.53;59.16;101214.06;7397705;19;1524;-58
2023/04/28 02:06:34;;;;;;;;;;;;;;;20.52;59.23;101229.34;7396653;19;1282;-58
2023/04/28 02:09:03;;;;;;;;;;;;;;;20.58;58.97;101223.44;7398072;19;1318;-58
2023/04/28 02:11:31;;;;;;;;;;;;;;;20.62;58.89;101242.88;7397019;19;1302;-58
2023/04/28 02:13:59;;;;;;;;;;;;;;;20.65;59.00;101218.41;7397800;19;1454;-58
2023/04/28 02:16:30;;;;;;;;;;;;;;;20.69;58.82;101232.41;7395974;19;1219;-59
2023/04/28 02:18:58;;;;;;;;;;;;;;;20.71;58.98;101243.88;7395295;19;1862;-58
2023/04/28 02:21:27;;;;;;;;;;;;;;;20.74;58.83;101230.19;7397946;19;1175;-59
2023/04/28 02:23:55;;;;;;;;;;;;;;;20.72;58.76;101237.53;7397648;19;1090;-59
2023/04/28 02:26:24;;;;;;;;;;;;;;;20.74;58.87;101222.13;7395389;19;1959;-58
2023/04/28 02:28:53;;;;;;;;;;;;;;;20.73;58.89;101225.78;7395818;19;1607;-58
2023/04/28 02:31:21;;;;;;;;;;;;;;;20.75;59.02;101231.88;7393840;19;1548;-58
2023/04/28 02:33:52;;;;;;;;;;;;;;;20.78;58.89;101235.16;7395162;19;1390;-58
2023/04/28 02:36:20;;;;;;;;;;;;;;;20.86;58.82;101251.44;7396268;19;1297;-58
2023/04/28 02:38:48;;;;;;;;;;;;;;;20.83;58.86;101232.91;7394406;19;1857;-58
2023/04/28 02:41:17;;;;;;;;;;;;;;;20.90;58.59;101235.91;7395097;19;1282;-59
2023/04/28 02:43:45;;;;;;;;;;;;;;;20.88;58.47;101251.31;7395962;19;1599;-59
2023/04/28 02:46:14;;;;;;;;;;;;;;;20.97;58.62;101245.13;7395051;19;1248;-58
2023/04/28 02:48:42;;;;;;;;;;;;;;;21.00;58.39;101244.84;7394484;19;1246;-58
2023/04/28 02:51:13;;;;;;;;;;;;;;;20.96;58.47;101232.66;7394655;19;1727;-58
2023/04/28 02:53:41;;;;;;;;;;;;;;;20.91;58.55;101236.75;7398582;19;1418;-58
2023/04/28 02:56:09;;;;;;;;;;;;;;;20.85;58.97;101257.81;7402503;19;1265;-58
2023/04/28 02:58:38;;;;;;;;;;;;;;;20.75;59.14;101264.13;7402383;19;1844;-58
2023/04/28 03:01:06;;;;;;;;;;;;;;;20.68;59.25;101268.38;7404012;19;1026;-58
2023/04/28 03:03:35;;;;;;;;;;;;;;;20.63;59.54;101268.75;7403035;19;1941;-59
2023/04/28 03:06:03;;;;;;;;;;;;;;;20.68;59.39;101273.75;7403017;19;1273;-59
2023/04/28 03:08:34;;;;;;;;;;;;;;;20.71;59.37;101281.50;7403033;19;1279;-59
2023/04/28 03:11:02;;;;;;;;;;;;;;;20.68;59.42;101262.97;7402845;19;1437;-58
2023/04/28 03:13:31;;;;;;;;;;;;;;;20.68;59.48;101292.56;7402921;19;1344;-59
2023/04/28 03:15:59;;;;;;;;;;;;;;;20.69;59.54;101281.66;7402442;19;1649;-59
2023/04/28 03:18:27;;;;;;;;;;;;;;;20.68;59.26;101282.63;7402334;19;1867;-58
2023/04/28 03:20:55;;;;;;;;;;;;;;;20.75;59.25;101294.56;7403182;19;1274;-58
2023/04/28 03:23:24;;;;;;;;;;;;;;;20.71;59.39;101289.56;7402746;19;1492;-58
2023/04/28 03:25:55;;;;;;;;;;;;;;;20.71;59.51;101293.13;7401784;19;1368;-59
2023/04/28 03:28:23;;;;;;;;;;;;;;;20.74;59.61;101318.88;7398733;19;1283;-59
2023/04/28 03:30:52;;;;;;;;;;;;;;;20.75;59.34;101301.75;7401870;19;1505;-59
2023/04/28 03:33:20;;;;;;;;;;;;;;;20.75;59.40;101309.81;7401764;19;1469;-58
2023/04/28 03:35:48;;;;;;;;;;;;;;;20.77;59.32;101314.09;7402474;19;1116;-58
2023/04/28 03:38:16;;;;;;;;;;;;;;;20.78;59.53;101310.41;7401674;19;1632;-58
2023/04/28 03:40:45;;;;;;;;;;;;;;;20.79;59.51;101325.56;7398522;19;1861;-59
2023/04/28 03:43:16;;;;;;;;;;;;;;;20.78;59.52;101339.13;7400819;19;1537;-59
2023/04/28 03:45:44;;;;;;;;;;;;;;;20.71;59.75;101336.13;7401747;19;1474;-59
2023/04/28 03:48:12;;;;;;;;;;;;;;;20.70;59.74;101328.19;7401964;19;1124;-59
2023/04/28 03:50:42;;;;;;;;;;;;;;;20.83;59.61;101339.56;7401315;19;1846;-59
2023/04/28 03:53:10;;;;;;;;;;;;;;;20.96;59.18;101345.59;7401606;19;1655;-59
2023/04/28 03:55:38;;;;;;;;;;;;;;;21.05;58.78;101335.88;7401286;19;1224;-59
2023/04/28 03:58:06;;;;;;;;;;;;;;;21.15;58.66;101342.16;7401088;19;1481;-58
2023/04/28 04:00:37;;;;;;;;;;;;;;;20.97;58.92;101355.38;7399469;19;1863;-59
2023/04/28 04:03:06;;;;;;;;;;;;;;;20.53;60.04;101354.66;7401977;19;1242;-58
2023/04/28 04:05:34;;;;;;;;;;;;;;;20.19;60.93;101346.78;7396820;19;1552;-58
2023/04/28 04:08:02;;;;;;;;;;;;;;;19.92;61.74;101365.19;7399948;19;1234;-59
2023/04/28 04:10:30;;;;;;;;;;;;;;;19.65;62.60;101350.34;7400317;19;1429;-59
2023/04/28 04:12:59;;;;;;;;;;;;;;;19.53;62.90;101364.75;7400823;19;1289;-59
2023/04/28 04:15:27;;;;;;;;;;;;;;;19.41;63.18;101367.44;7399990;19;1311;-59
2023/04/28 04:17:58;;;;;;;;;;;;;;;19.34;63.42;101376.09;7399909;19;1859;-59
2023/04/28 04:20:26;;;;;;;;;;;;;;;19.30;63.31;101367.47;7398647;19;1895;-59
2023/04/28 04:22:54;;;;;;;;;;;;;;;19.25;63.52;101375.88;7398495;19;1261;-59
2023/04/28 04:25:23;;;;;;;;;;;;;;;19.31;63.48;101381.72;7397899;19;1227;-58
2023/04/28 04:27:51;;;;;;;;;;;;;;;19.24;63.77;101376.00;7396612;19;1300;-59
2023/04/28 04:30:19;;;;;;;;;;;;;;;19.60;62.95;101374.03;7398966;19;1422;-59
2023/04/28 04:32:48;;;;;;;;;;;;;;;19.79;62.23;101371.56;7398286;19;1251;-59
2023/04/28 04:35:18;;;;;;;;;;;;;;;19.78;62.35;101377.91;7398131;19;1825;-58
2023/04/28 04:37:47;;;;;;;;;;;;;;;19.76;62.18;101374.50;7398380;19;1419;-58
2023/04/28 04:40:15;;;;;;;;;;;;;;;19.62;62.69;101370.22;7396843;19;1853;-59
2023/04/28 04:42:43;;;;;;;;;;;;;;;19.56;62.74;101380.63;7397464;19;1195;-59
2023/04/28 04:45:12;;;;;;;;;;;;;;;19.51;63.03;101404.28;7399389;19;1373;-58
2023/04/28 04:47:40;;;;;;;;;;;;;;;19.61;62.83;101389.97;7399676;19;1021;-59
2023/04/28 04:50:09;;;;;;;;;;;;;;;19.97;62.68;101397.88;7396067;19;1402;-58
2023/04/28 04:52:40;;;;;;;;;;;;;;;19.78;62.72;101396.69;7394188;19;1848;-58
2023/04/28 04:55:10;;;;;;;;;;;;;;;19.58;62.94;101408.19;7395190;19;1613;-59
2023/04/28 04:57:38;;;;;;;;;;;;;;;19.50;63.07;101413.28;7398413;19;1468;-59
2023/04/28 05:00:07;;;;;;;;;;;;;;;19.68;62.09;101406.44;7392993;19;1864;-59
2023/04/28 05:02:35;;;;;;;;;;;;;;;19.75;61.21;101402.31;7396115;19;1643;-59
2023/04/28 05:05:04;;;;;;;;;;;;;;;19.51;62.56;101413.16;7396342;19;1473;-58
2023/04/28 05:07:32;;;;;;;;;;;;;;;19.79;62.18;101408.28;7398559;19;1599;-59
2023/04/28 05:10:03;;;;;;;;;;;;;;;20.02;61.28;101403.72;7395213;19;1540;-58
2023/04/28 05:12:31;;;;;;;;;;;;;;;19.86;61.93;101398.75;7397439;19;1061;-58
2023/04/28 05:14:59;;;;;;;;;;;;;;;19.90;61.82;101404.75;7396357;19;1657;-58
2023/04/28 05:17:28;;;;;;;;;;;;;;;19.86;61.91;101404.97;7392624;19;1322;-59
2023/04/28 05:19:56;;;;;;;;;;;;;;;19.79;61.81;101421.69;7394506;19;1848;-59
2023/04/28 05:22:24;;;;;;;;;;;;;;;19.75;61.71;101429.13;7394331;19;1595;-59
2023/04/28 05:24:53;;;;;;;;;;;;;;;19.61;62.57;101426.69;7393554;19;1132;-59
2023/04/28 05:27:24;;;;;;;;;;;;;;;19.90;61.74;101408.25;7392039;19;1368;-59
2023/04/28 05:29:52;;;;;;;;;;;;;;;20.01;61.42;101418.09;7394909;19;1199;-59
2023/04/28 05:32:20;;;;;;;;;;;;;;;19.92;61.53;101414.34;7394992;19;1268;-58
2023/04/28 05:34:49;;;;;;;;;;;;;;;19.84;61.85;101431.09;7395231;19;1447;-59
2023/04/28 05:37:17;;;;;;;;;;;;;;;19.83;61.67;101434.72;7397742;19;1596;-59
2023/04/28 05:39:45;;;;;;;;;;;;;;;19.88;61.45;101428.16;7394381;19;1853;-58
2023/04/28 05:42:13;;;;;;;;;;;;;;;19.67;61.92;101442.28;7392885;19;1849;-59
2023/04/28 05:44:44;;;;;;;;;;;;;;;19.78;62.00;101434.28;7392486;19;1266;-58
2023/04/28 05:47:13;;;;;;;;;;;;;;;20.13;61.17;101413.56;7392234;19;1813;-58
2023/04/28 05:49:41;;;;;;;;;;;;;;;19.99;61.45;101430.81;7392620;19;1195;-59
2023/04/28 05:52:09;;;;;;;;;;;;;;;19.84;61.93;101441.81;7392386;19;1845;-58
2023/04/28 05:54:37;;;;;;;;;;;;;;;19.78;61.98;101441.47;7394478;19;1525;-59
2023/04/28 05:57:07;;;;;;;;;;;;;;;19.69;62.06;101451.06;7396249;19;1611;-58
2023/04/28 05:59:35;;;;;;;;;;;;;;;19.70;61.96;101455.47;7395528;19;1873;-58
2023/04/28 06:02:06;;;;;;;;;;;;;;;19.66;62.33;101443.28;7397295;19;1647;-59
2023/04/28 06:04:34;;;;;;;;;;;;;;;20.05;61.25;101452.66;7397337;19;1156;-59
2023/04/28 06:07:03;;;;;;;;;;;;;;;20.10;61.38;101454.94;7398033;19;1163;-58
2023/04/28 06:09:31;;;;;;;;;;;;;;;19.91;61.67;101462.78;7397618;19;1616;-59
2023/04/28 06:11:59;;;;;;;;;;;;;;;19.83;61.92;101468.78;7396314;19;1164;-59
2023/04/28 06:14:27;;;;;;;;;;;;;;;19.82;62.08;101467.94;7398215;19;1071;-59
2023/04/28 06:16:56;;;;;;;;;;;;;;;19.74;62.02;101469.53;7396817;19;1794;-59
2023/04/28 06:19:27;;;;;;;;;;;;;;;19.62;62.57;101460.59;7396759;19;1843;-58
2023/04/28 06:21:55;;;;;;;;;;;;;;;19.91;61.97;101470.84;7396319;19;1204;-58
2023/04/28 06:24:24;;;;;;;;;;;;;;;20.12;60.99;101447.63;7390487;19;1241;-58
2023/04/28 06:26:52;;;;;;;;;;;;;;;19.90;61.62;101471.84;7383026;19;1378;-58
2023/04/28 06:29:22;;;;;;;;;;;;;;;19.84;62.04;101457.94;7392265;19;1183;-58
2023/04/28 06:31:51;;;;;;;;;;;;;;;19.80;61.80;101469.88;7391929;19;1912;-58
2023/04/28 06:34:19;;;;;;;;;;;;;;;19.67;62.02;101474.50;7392224;19;1254;-58
2023/04/28 06:36:50;;;;;;;;;;;;;;;19.62;62.14;101477.56;7393300;19;1109;-58
2023/04/28 06:39:19;;;;;;;;;;;;;;;19.65;62.36;101468.41;7393643;19;1627;-58
2023/04/28 06:41:47;;;;;;;;;;;;;;;19.85;61.58;101462.31;7386336;19;1864;-64
2023/04/28 06:44:15;;;;;;;;;;;;;;;19.72;62.22;101461.59;7392263;19;1504;-63
2023/04/28 06:46:44;;;;;;;;;;;;;;;19.12;62.28;101403.78;7392850;19;1466;-63
2023/04/28 06:49:12;;;;;;;;;;;;;;;19.45;62.82;101469.97;7389744;19;1492;-63
2023/04/28 06:51:40;;;;;;;;;;;;;;;19.60;62.39;101463.41;7390886;19;1172;-63
2023/04/28 06:54:12;;;;;;;;;;;;;;;19.65;62.17;101471.09;7391568;19;1263;-63
2023/04/28 06:56:40;;;;;;;;;;;;;;;19.59;62.54;101463.53;7389457;19;1196;-63
2023/04/28 06:59:09;;;;;;;;;;;;;;;19.45;62.99;101473.50;7387346;19;1231;-57
2023/04/28 07:01:37;;;;;;;;;;;;;;;19.52;62.19;101465.84;7386300;19;1842;-57
2023/04/28 07:04:06;;;;;;;;;;;;;;;19.51;62.52;101471.34;7391425;19;1709;-57
2023/04/28 07:06:34;;;;;;;;;;;;;;;19.32;62.57;101467.44;7393981;19;1396;-57
2023/04/28 07:09:03;;;;;;;;;;;;;;;19.38;62.71;101472.31;7393480;19;1155;-57
2023/04/28 07:11:34;;;;;;;;;;;;;;;19.68;62.30;101473.53;7389838;19;1152;-58
2023/04/28 07:14:02;;;;;;;;;;;;;;;19.54;62.47;101465.75;7392739;19;1406;-57
2023/04/28 07:16:31;;;;;;;;;;;;;;;19.41;63.01;101479.25;7392217;19;1519;-59
2023/04/28 07:18:59;;;;;;;;;;;;;;;19.38;63.09;101475.00;7389132;19;1434;-59
2023/04/28 07:21:28;;;;;;;;;;;;;;;19.37;63.11;101473.25;7390398;19;1863;-58
2023/04/28 07:23:56;;;;;;;;;;;;;;;19.48;63.01;101480.47;7392907;19;1857;-58
2023/04/28 07:26:25;;;;;;;;;;;;;;;19.48;62.88;101462.56;7389734;19;1211;-56
2023/04/28 07:28:56;;;;;;;;;;;;;;;19.55;63.05;101480.84;7393181;19;1925;-57
2023/04/28 07:31:24;;;;;;;;;;;;;;;19.53;63.15;101469.38;7393801;19;1193;-57
2023/04/28 07:33:53;;;;;;;;;;;;;;;19.44;66.74;101468.28;7392867;19;1442;-57
2023/04/28 07:36:21;;;;;;;;;;;;;;;19.42;67.77;101455.00;7393944;19;1191;-57
2023/04/28 07:38:50;;;;;;;;;;;;;;;19.55;68.75;101467.44;7394224;19;1533;-58
2023/04/28 07:41:18;;;;;;;;;;;;;;;19.52;68.91;101451.56;7396983;19;1844;-59
2023/04/28 07:43:46;;;;;;;;;;;;;;;19.45;68.56;101460.09;7397913;19;1378;-58
2023/04/28 07:46:18;;;;;;;;;;;;;;;19.54;67.93;101463.06;7400090;19;1536;-58
2023/04/28 07:48:46;;;;;;;;;;;;;;;19.51;67.74;101458.75;7397867;19;1417;-58
2023/04/28 07:51:15;;;;;;;;;;;;;;;19.59;68.38;101456.31;7399233;19;1362;-58
2023/04/28 07:53:43;;;;;;;;;;;;;;;19.53;66.92;101461.34;7398755;19;1963;-58
2023/04/28 07:56:11;;;;;;;;;;;;;;;19.26;67.68;101460.72;7393288;19;1199;-59
2023/04/28 07:58:40;;;;;;;;;;;;;;;19.22;65.28;101464.63;7397319;19;1372;-59
2023/04/28 08:01:08;;;;;;;;;;;;;;;19.27;65.30;101472.28;7393378;19;1841;-58
2023/04/28 08:03:39;;;;;;;;;;;;;;;19.26;64.97;101454.50;7397273;19;1595;-60
2023/04/28 08:06:08;;;;;;;;;;;;;;;19.26;64.25;101465.22;7397578;19;1465;-58
2023/04/28 08:08:37;;;;;;;;;;;;;;;19.23;63.02;101454.72;7399629;19;1496;-58
2023/04/28 08:11:06;;;;;;;;;;;;;;;19.18;62.02;101460.47;7398208;19;1339;-58
2023/04/28 08:13:35;;;;;;;;;;;;;;;19.08;60.99;101444.25;7399250;19;1222;-58
2023/04/28 08:16:03;;;;;;;;;;;;;;;19.08;60.83;101438.88;7396675;19;1515;-59
2023/04/28 08:18:31;;;;;;;;;;;;;;;19.06;60.78;101451.53;7396011;19;1488;-58
2023/04/28 08:21:02;;;;;;;;;;;;;;;19.05;60.74;101447.16;7397643;19;1851;-57
2023/04/28 08:23:30;;;;;;;;;;;;;;;19.06;59.96;101451.53;7398719;19;1536;-58
2023/04/28 08:25:59;;;;;;;;;;;;;;;19.13;59.53;101448.38;7397314;19;1932;-58
2023/04/28 08:28:27;;;;;;;;;;;;;;;19.15;59.46;101447.28;7395282;19;1908;-59
2023/04/28 08:30:57;;;;;;;;;;;;;;;19.09;60.19;101450.44;7396342;19;1258;-59
2023/04/28 08:33:26;;;;;;;;;;;;;;;19.01;60.25;101440.31;7397506;19;1184;-59
2023/04/28 08:35:54;;;;;;;;;;;;;;;18.97;60.24;101436.16;7398654;19;1128;-59
2023/04/28 08:38:25;;;;;;;;;;;;;;;19.02;60.72;101435.81;7393909;19;1466;-59
2023/04/28 08:40:53;;;;;;;;;;;;;;;19.00;60.77;101419.88;7395303;19;1870;-59
2023/04/28 08:43:23;;;;;;;;;;;;;;;19.02;60.71;101435.81;7396528;19;1473;-57
2023/04/28 08:45:51;;;;;;;;;;;;;;;19.18;59.54;101427.41;7397546;19;1190;-57
2023/04/28 08:48:21;;;;;;;;;;;;;;;19.12;60.65;101426.09;7396023;19;1481;-59
2023/04/28 08:50:51;;;;;;;;;;;;;;;18.99;60.91;101423.50;7397344;19;1485;-59
2023/04/28 08:53:23;;;;;;;;;;;;;;;19.00;60.49;101417.19;7398043;19;1367;-57
2023/04/28 08:55:56;;;;;;;;;;;;;;;19.05;60.36;101419.50;7397634;19;1602;-58
2023/04/28 08:58:25;;;;;;;;;;;;;;;19.05;60.15;101417.66;7397079;19;1231;-59
2023/04/28 09:00:54;;;;;;;;;;;;;;;18.99;60.35;101419.97;7397196;19;1859;-57
2023/04/28 09:03:22;;;;;;;;;;;;;;;18.98;60.42;101418.25;7397572;19;1328;-58
2023/04/28 09:05:59;;;;;;;;;;;;;;;19.00;60.65;101421.66;7397035;19;1676;-58
2023/04/28 09:08:27;;;;;;;;;;;;;;;18.94;60.86;101409.63;7395658;19;1401;-59
2023/04/28 09:11:12;;;;;;;;;;;;;;;19.13;60.46;101416.22;7397359;19;1294;-59
2023/04/28 09:13:41;;;;;;;;;;;;;;;19.29;60.23;101414.03;7395842;19;1211;-59
2023/04/28 09:16:10;;;;;;;;;;;;;;;19.31;60.88;101406.72;7395432;19;1237;-58
2023/04/28 09:18:38;;;;;;;;;;;;;;;19.25;60.55;101416.09;7396264;19;1457;-58
2023/04/28 09:21:07;;;;;;;;;;;;;;;19.20;60.35;101387.94;7397032;19;1857;-57
2023/04/28 09:23:36;;;;;;;;;;;;;;;19.24;60.90;101394.78;7394059;19;1465;-58
2023/04/28 09:26:06;;;;;;;;;;;;;;;19.26;60.69;101392.84;7396741;19;1452;-57
2023/04/28 09:28:37;;;;;;;;;;;;;;;19.29;60.61;101384.53;7392398;19;1220;-58
2023/04/28 09:31:06;;;;;;;;;;;;;;;19.22;60.66;101391.38;7396822;19;1208;-58
2023/04/28 09:33:34;;;;;;;;;;;;;;;19.12;60.82;101374.28;7397182;19;1104;-58
2023/04/28 09:36:02;;;;;;;;;;;;;;;19.09;61.01;101370.03;7397635;19;1206;-58
2023/04/28 09:38:31;;;;;;;;;;;;;;;19.10;60.57;101378.91;7396678;19;1513;-57
2023/04/28 09:40:59;;;;;;;;;;;;;;;19.11;60.65;101394.03;7396092;19;1867;-58
2023/04/28 09:43:29;;;;;;;;;;;;;;;19.11;59.40;101378.78;7396052;19;1281;-58
2023/04/28 09:46:00;;;;;;;;;;;;;;;19.17;59.40;101375.63;7395554;19;1091;-58
2023/04/28 09:48:29;;;;;;;;;;;;;;;19.26;58.78;101377.59;7395200;19;1410;-57
2023/04/28 09:50:58;;;;;;;;;;;;;;;19.33;58.64;101372.56;7391098;19;1343;-57
2023/04/28 09:53:27;;;;;;;;;;;;;;;19.30;58.75;101370.16;7391798;19;1549;-58
2023/04/28 09:55:56;;;;;;;;;;;;;;;19.14;55.37;101366.97;7391254;19;1623;-58
2023/04/28 09:58:24;;;;;;;;;;;;;;;19.04;55.80;101361.50;7393942;19;1489;-58
2023/04/28 10:00:54;;;;;;;;;;;;;;;19.08;55.94;101371.84;7390649;19;1849;-58
2023/04/28 10:03:27;;;;;;;;;;;;;;;19.23;56.66;101368.94;7391582;19;1206;-58
2023/04/28 10:05:56;;;;;;;;;;;;;;;19.03;57.36;101382.06;7395575;19;1834;-58
2023/04/28 10:08:26;;;;;;;;;;;;;;;19.00;57.66;101363.56;7394638;19;1469;-58
2023/04/28 10:10:55;;;;;;;;;;;;;;;19.04;57.70;101358.84;7396624;19;1175;-58
2023/04/28 10:13:24;;;;;;;;;;;;;;;19.02;57.70;101364.31;7391577;19;1406;-57
2023/04/28 10:15:54;;;;;;;;;;;;;;;18.93;57.75;101359.66;7392516;19;1421;-58
2023/04/28 10:18:24;;;;;;;;;;;;;;;18.97;57.66;101354.91;7393444;19;1438;-58
2023/04/28 10:20:57;;;;;;;;;;;;;;;18.99;54.13;101356.50;7394709;19;1835;-57
2023/04/28 10:23:40;;;;;;;;;;;;;;;19.10;56.06;101363.72;7393339;19;1389;-57
2023/04/28 10:26:12;;;;;;;;;;;;;;;18.97;57.33;101363.81;7394279;19;1417;-56
2023/04/28 10:28:47;;;;;;;;;;;;;;;18.91;57.54;101364.28;7392985;19;1196;-57
2023/04/28 10:31:17;;;;;;;;;;;;;;;18.88;57.59;101359.19;7393287;19;1394;-58
2023/04/28 10:33:45;;;;;;;;;;;;;;;18.92;57.19;101366.00;7395381;19;1233;-58
2023/04/28 10:36:37;;;;;;;;;;;;;;;18.93;57.50;101373.06;7395596;19;1009;-57
2023/04/28 10:39:15;;;;;;;;;;;;;;;18.86;54.82;101355.75;7391658;19;1986;-56
2023/04/28 10:41:44;;;;;;;;;;;;;;;18.84;56.01;101349.66;7391822;19;1843;-57
2023/04/28 10:44:36;;;;;;;;;;;;;;;18.98;55.74;101357.47;7394532;19;1195;-58
2023/04/28 10:47:05;;;;;;;;;;;;;;;19.16;55.21;101357.84;7392880;19;1655;-58
2023/04/28 10:49:49;;;;;;;;;;;;;;;19.12;55.70;101358.19;7393489;19;1127;-56
2023/04/28 10:52:33;;;;;;;;;;;;;;;19.35;55.52;101345.66;7393484;19;1667;-57
2023/04/28 10:55:19;;;;;;;;;;;;;;;19.45;55.55;101347.44;7393681;19;1268;-59
2023/04/28 10:58:10;;;;;;;;;;;;;;;19.15;56.79;101349.91;7392618;19;2049;-58
2023/04/28 11:00:39;;;;;;;;;;;;;;;19.08;57.03;101344.22;7393468;19;2152;-58
2023/04/28 11:03:08;;;;;;;;;;;;;;;19.12;56.57;101344.78;7392231;19;1844;-58
2023/04/28 11:05:36;;;;;;;;;;;;;;;19.05;57.10;101339.06;7393981;19;1670;-58
2023/04/28 11:08:32;;;;;;;;;;;;;;;19.04;57.86;101348.09;7392411;19;1405;-59
2023/04/28 11:11:15;;;;;;;;;;;;;;;18.96;57.34;101339.78;7390173;19;1536;-59
2023/04/28 11:13:46;;;;;;;;;;;;;;;19.16;57.30;101340.88;7395744;19;1230;-59
2023/04/28 11:16:16;;;;;;;;;;;;;;;19.43;56.66;101322.56;7403003;19;1211;-59
2023/04/28 11:18:54;;;;;;;;;;;;;;;19.28;57.24;101319.31;7402360;19;1219;-58
2023/04/28 11:21:23;;;;;;;;;;;;;;;19.12;57.95;101318.84;7401946;19;1867;-58
2023/04/28 11:23:52;;;;;;;;;;;;;;;19.17;58.08;101332.72;7398350;19;1556;-58
2023/04/28 11:26:22;;;;;;;;;;;;;;;19.10;58.53;101326.16;7397330;19;1576;-58
2023/04/28 11:28:57;;;;;;;;;;;;;;;19.16;58.42;101324.81;7397778;19;1433;-58
2023/04/28 11:31:26;;;;;;;;;;;;;;;19.21;58.34;101311.91;7398793;19;1532;-58
2023/04/28 11:34:02;;;;;;;;;;;;;;;19.26;58.36;101326.63;7395053;19;1474;-58
2023/04/28 11:36:31;;;;;;;;;;;;;;;19.18;58.72;101320.16;7398675;19;1314;-59
2023/04/28 11:39:00;;;;;;;;;;;;;;;19.08;59.31;101318.25;7401414;19;1603;-59
2023/04/28 11:41:28;;;;;;;;;;;;;;;19.07;59.08;101321.88;7401321;19;1873;-59
2023/04/28 11:43:59;;;;;;;;;;;;;;;19.05;59.28;101321.16;7401279;19;1501;-59
2023/04/28 11:46:28;;;;;;;;;;;;;;;19.07;59.35;101316.53;7401000;19;1469;-58
2023/04/28 11:49:03;;;;;;;;;;;;;;;19.17;59.20;101318.47;7401089;19;1273;-58
2023/04/28 11:51:35;;;;;;;;;;;;;;;19.10;59.81;101327.97;7400984;19;1298;-59
2023/04/28 11:54:05;;;;;;;;;;;;;;;19.08;59.80;101320.09;7401501;19;1271;-58
2023/04/28 11:56:38;;;;;;;;;;;;;;;19.22;59.33;101313.63;7401259;19;1219;-58
2023/04/28 11:59:10;;;;;;;;;;;;;;;19.25;59.27;101313.34;7400507;19;1179;-58
2023/04/28 12:01:46;;;;;;;;;;;;;;;19.17;59.49;101321.16;7400775;19;1855;-59
2023/04/28 12:04:15;;;;;;;;;;;;;;;19.45;58.90;101309.91;7401215;19;1255;-59
2023/04/28 12:06:44;;;;;;;;;;;;;;;19.37;59.10;101306.16;7401744;19;1029;-58
2023/04/28 12:09:24;;;;;;;;;;;;;;;19.33;59.31;101302.00;7399975;19;1481;-59
2023/04/28 12:11:56;;;;;;;;;;;;;;;19.46;58.85;101300.03;7399763;19;1481;-59
2023/04/28 12:14:27;;;;;;;;;;;;;;;19.53;58.88;101292.34;7400342;19;1125;-58
2023/04/28 12:16:57;;;;;;;;;;;;;;;19.70;58.60;101301.69;7400226;19;1599;-58
2023/04/28 12:19:25;;;;;;;;;;;;;;;19.46;59.12;101289.31;7400790;19;1513;-58
2023/04/28 12:22:00;;;;;;;;;;;;;;;19.42;59.23;101282.50;7399104;19;1886;-58
2023/04/28 12:24:29;;;;;;;;;;;;;;;19.39;59.27;101270.16;7400231;19;1500;-59
2023/04/28 12:27:15;;;;;;;;;;;;;;;19.65;58.62;101270.69;7397289;19;1674;-59
2023/04/28 12:29:47;;;;;;;;;;;;;;;19.56;58.74;101262.59;7399955;19;1560;-58
2023/04/28 12:32:16;;;;;;;;;;;;;;;19.37;59.41;101264.06;7399502;19;1298;-59
2023/04/28 12:34:46;;;;;;;;;;;;;;;19.28;59.95;101264.84;7399696;19;1176;-59
2023/04/28 12:37:14;;;;;;;;;;;;;;;19.19;60.08;101254.88;7400640;19;1842;-58
2023/04/28 12:39:43;;;;;;;;;;;;;;;19.19;60.00;101241.47;7400355;19;1180;-59
2023/04/28 12:42:11;;;;;;;;;;;;;;;19.22;59.96;101260.00;7398460;19;1940;-59
2023/04/28 12:44:40;;;;;;;;;;;;;;;19.25;60.16;101243.63;7399507;19;1258;-58
2023/04/28 12:47:12;;;;;;;;;;;;;;;19.13;60.34;101248.16;7399528;19;1414;-59
2023/04/28 12:49:40;;;;;;;;;;;;;;;19.07;60.79;101246.84;7398611;19;1450;-58
2023/04/28 12:52:09;;;;;;;;;;;;;;;19.01;60.90;101247.31;7399834;19;1488;-59
2023/04/28 12:54:37;;;;;;;;;;;;;;;19.03;60.93;101241.84;7398976;19;1995;-58
2023/04/28 12:57:06;;;;;;;;;;;;;;;19.10;60.69;101250.25;7399322;19;1389;-58
2023/04/28 12:59:35;;;;;;;;;;;;;;;19.21;60.33;101236.81;7398271;19;1175;-59
2023/04/28 13:02:03;;;;;;;;;;;;;;;19.04;60.89;101241.72;7397916;19;1851;-59